Time;durP1;ratioP1;P1;durP2;ratioP2;P2;SDS_P1;SDS_P2;PMS_P1;PMS_P2;Temp;Humidity;BMP_temperature;BMP_pressure;BME280_temperature;BME280_humidity;BME280_pressure;Samples;Min_cycle;Max_cycle;Signal;HPM_P1;HPM_P2
2023/08/13 00:00:43;;;;;;;2.97;0.95;;;16.90;98.00;;;;;;4972074;28;20132;-82
2023/08/13 00:03:10;;;;;;;2.55;1.20;;;16.80;98.40;;;;;;4972975;28;20069;-82
2023/08/13 00:05:37;;;;;;;1.50;1.10;;;16.80;98.30;;;;;;4974190;28;20078;-82
2023/08/13 00:08:04;;;;;;;3.22;1.65;;;16.70;98.60;;;;;;4972692;28;20050;-82
2023/08/13 00:10:31;;;;;;;3.53;1.60;;;16.70;98.80;;;;;;4994578;23;20524;-81
2023/08/13 00:12:58;;;;;;;5.72;1.40;;;16.60;98.60;;;;;;5027923;28;20071;-80
2023/08/13 00:15:25;;;;;;;6.03;1.75;;;16.50;99.10;;;;;;5025592;28;20053;-80
2023/08/13 00:17:52;;;;;;;2.45;1.35;;;16.50;99.30;;;;;;5026504;28;20071;-80
2023/08/13 00:20:19;;;;;;;3.47;1.30;;;16.40;99.40;;;;;;5027780;28;21286;-80
2023/08/13 00:22:45;;;;;;;3.47;1.50;;;16.40;99.70;;;;;;5026348;28;20091;-80
2023/08/13 00:25:12;;;;;;;2.90;1.55;;;16.30;99.50;;;;;;5027373;28;20494;-80
2023/08/13 00:27:39;;;;;;;5.32;1.67;;;16.20;99.60;;;;;;5025923;28;20502;-80
2023/08/13 00:30:07;;;;;;;7.85;1.70;;;16.10;99.50;;;;;;5027503;28;20637;-80
2023/08/13 00:32:34;;;;;;;6.45;2.15;;;16.10;99.90;;;;;;5034799;28;20049;-80
2023/08/13 00:35:01;;;;;;;6.30;1.90;;;16.10;99.80;;;;;;5028511;28;20755;-80
2023/08/13 00:37:28;;;;;;;4.93;1.88;;;16.00;99.70;;;;;;5026642;28;20503;-80
2023/08/13 00:39:55;;;;;;;7.10;2.08;;;16.00;99.60;;;;;;5026377;28;20049;-80
2023/08/13 00:42:21;;;;;;;5.18;1.98;;;16.00;99.60;;;;;;5015349;28;20057;-80
2023/08/13 00:44:48;;;;;;;7.95;2.20;;;15.90;99.70;;;;;;5015000;28;20582;-80
2023/08/13 00:47:15;;;;;;;8.05;2.10;;;15.90;99.70;;;;;;5023128;28;20052;-80
2023/08/13 00:49:42;;;;;;;9.02;1.92;;;15.80;99.30;;;;;;5026850;28;20107;-80
2023/08/13 00:52:09;;;;;;;9.10;2.50;;;15.80;99.20;;;;;;5024009;28;20049;-80
2023/08/13 00:54:36;;;;;;;2.90;1.42;;;15.80;99.20;;;;;;5025658;28;20073;-80
2023/08/13 00:57:04;;;;;;;5.28;2.25;;;15.80;99.20;;;;;;5024065;28;20053;-80
2023/08/13 00:59:33;;;;;;;6.90;2.35;;;15.80;99.20;;;;;;5026401;28;20103;-80
2023/08/13 01:02:00;;;;;;;11.10;2.20;;;15.70;99.20;;;;;;5024696;28;20054;-79
2023/08/13 01:04:27;;;;;;;8.57;2.33;;;15.70;99.30;;;;;;5029355;28;20620;-79
2023/08/13 01:07:04;;;;;;;6.07;2.22;;;15.70;99.20;;;;;;5026759;28;20049;-79
2023/08/13 01:09:43;;;;;;;9.75;2.45;;;15.70;99.00;;;;;;5022840;28;20176;-80
2023/08/13 01:12:46;;;;;;;6.45;2.42;;;15.60;98.90;;;;;;5046708;28;20055;-80
2023/08/13 01:15:18;;;;;;;6.82;2.78;;;15.60;98.80;;;;;;5021348;28;20053;-80
2023/08/13 01:17:48;;;;;;;8.57;2.50;;;15.60;98.80;;;;;;5046864;28;20136;-80
2023/08/13 01:20:15;;;;;;;6.70;2.35;;;15.50;98.80;;;;;;5046687;28;20048;-80
2023/08/13 01:22:46;;;;;;;4.75;2.35;;;15.50;98.80;;;;;;5028637;28;20041;-80
2023/08/13 01:25:14;;;;;;;8.15;2.63;;;15.40;98.60;;;;;;5046042;28;20103;-81
2023/08/13 01:28:09;;;;;;;10.10;2.58;;;15.40;98.80;;;;;;5028842;28;20405;-81
2023/08/13 01:30:46;;;;;;;5.47;2.15;;;15.30;98.80;;;;;;5045976;28;20067;-80
2023/08/13 01:33:27;;;;;;;8.30;2.53;;;15.30;99.10;;;;;;5028021;28;20436;-81
2023/08/13 01:36:00;;;;;;;9.63;2.10;;;15.20;98.90;;;;;;5019799;28;20521;-81
2023/08/13 01:38:29;;;;;;;4.43;2.00;;;15.10;99.10;;;;;;5027911;28;20068;-80
2023/08/13 01:40:59;;;;;;;4.30;2.10;;;15.00;99.10;;;;;;5030069;28;20045;-81
2023/08/13 01:43:26;;;;;;;9.10;2.42;;;14.90;99.50;;;;;;5025712;28;20133;-81
2023/08/13 01:45:53;;;;;;;10.65;2.67;;;14.80;99.60;;;;;;5044738;28;20036;-81
2023/08/13 01:48:20;;;;;;;7.97;2.80;;;14.80;99.80;;;;;;5026468;28;20048;-81
2023/08/13 01:50:47;;;;;;;12.60;3.33;;;14.80;99.80;;;;;;5026928;28;20405;-81
2023/08/13 01:53:14;;;;;;;7.63;2.78;;;14.70;100.00;;;;;;5046172;28;20452;-80
2023/08/13 01:55:41;;;;;;;11.50;2.78;;;14.70;100.00;;;;;;5025798;28;20048;-80
2023/08/13 01:58:10;;;;;;;11.50;2.70;;;14.70;100.00;;;;;;5045282;28;20697;-80
2023/08/13 02:00:37;;;;;;;5.32;2.25;;;14.60;100.00;;;;;;5046600;28;20509;-80
2023/08/13 02:03:04;;;;;;;9.57;2.80;;;14.60;100.00;;;;;;5044517;28;20052;-81
2023/08/13 02:05:32;;;;;;;9.90;2.90;;;14.60;100.00;;;;;;5015486;28;20071;-80
2023/08/13 02:07:59;;;;;;;10.07;2.92;;;14.50;100.00;;;;;;5029516;28;20063;-80
2023/08/13 02:10:26;;;;;;;12.50;2.72;;;14.50;100.00;;;;;;5027847;28;20084;-80
2023/08/13 02:12:53;;;;;;;7.22;3.30;;;14.40;100.00;;;;;;5029149;28;20147;-80
2023/08/13 02:15:19;;;;;;;11.65;3.15;;;14.40;100.00;;;;;;5046104;28;20044;-81
2023/08/13 02:17:46;;;;;;;15.80;3.40;;;14.40;100.00;;;;;;5026202;28;20048;-80
2023/08/13 02:20:13;;;;;;;9.00;3.22;;;14.40;100.00;;;;;;5027307;28;20144;-80
2023/08/13 02:22:40;;;;;;;15.55;3.35;;;14.40;100.00;;;;;;5036646;28;20072;-80
2023/08/13 02:25:07;;;;;;;12.40;3.30;;;14.40;100.00;;;;;;5027018;28;20437;-80
2023/08/13 02:27:34;;;;;;;17.00;3.30;;;14.40;100.00;;;;;;5052242;23;20072;-81
2023/08/13 02:30:03;;;;;;;12.85;3.45;;;14.30;100.00;;;;;;5025986;28;20056;-81
2023/08/13 02:32:30;;;;;;;11.50;3.42;;;14.30;100.00;;;;;;5031832;28;20046;-80
2023/08/13 02:34:57;;;;;;;15.23;4.15;;;14.30;100.00;;;;;;5033578;28;20048;-81
2023/08/13 02:37:23;;;;;;;14.73;4.38;;;14.20;100.00;;;;;;5032008;28;20137;-81
2023/08/13 02:39:50;;;;;;;11.30;4.43;;;14.20;100.00;;;;;;5035315;28;20049;-81
2023/08/13 02:42:17;;;;;;;14.32;5.22;;;14.20;100.00;;;;;;5035282;28;20052;-80
2023/08/13 02:44:44;;;;;;;10.43;4.65;;;14.10;100.00;;;;;;5017042;28;20780;-81
2023/08/13 02:47:11;;;;;;;15.15;5.25;;;14.10;100.00;;;;;;5034285;28;20118;-80
2023/08/13 02:49:38;;;;;;;13.63;4.85;;;14.10;100.00;;;;;;5014716;28;20572;-80
2023/08/13 02:52:05;;;;;;;11.63;4.63;;;14.00;100.00;;;;;;5018239;28;20051;-80
2023/08/13 02:54:32;;;;;;;18.67;4.38;;;14.00;100.00;;;;;;5019053;28;20045;-80
2023/08/13 02:56:59;;;;;;;10.82;3.40;;;14.00;100.00;;;;;;5034139;28;20500;-80
2023/08/13 02:59:26;;;;;;;12.18;3.80;;;13.90;100.00;;;;;;5024776;28;20541;-81
2023/08/13 03:01:53;;;;;;;10.30;3.90;;;13.90;100.00;;;;;;5040377;28;20075;-81
2023/08/13 03:04:20;;;;;;;15.55;4.00;;;13.90;100.00;;;;;;5040006;28;20346;-81
2023/08/13 03:06:47;;;;;;;12.20;5.10;;;13.90;100.00;;;;;;5020189;28;20076;-81
2023/08/13 03:09:22;;;;;;;19.58;5.65;;;13.90;100.00;;;;;;5022328;28;20049;-80
2023/08/13 03:11:49;;;;;;;20.58;5.35;;;13.90;100.00;;;;;;5040270;28;20059;-80
2023/08/13 03:14:17;;;;;;;15.80;5.43;;;13.90;100.00;;;;;;5037169;28;20124;-81
2023/08/13 03:16:44;;;;;;;18.35;5.75;;;14.00;100.00;;;;;;5036791;28;20406;-81
2023/08/13 03:19:11;;;;;;;11.05;5.82;;;13.90;100.00;;;;;;5035742;28;20149;-81
2023/08/13 03:21:38;;;;;;;16.40;5.13;;;13.90;100.00;;;;;;5035462;28;20671;-81
2023/08/13 03:24:05;;;;;;;11.45;4.57;;;13.90;100.00;;;;;;5020287;28;20048;-81
2023/08/13 03:26:32;;;;;;;11.40;5.22;;;13.80;100.00;;;;;;5020841;28;20115;-80
2023/08/13 03:28:59;;;;;;;17.67;5.28;;;13.80;100.00;;;;;;5037545;28;20409;-81
2023/08/13 03:31:26;;;;;;;27.42;5.75;;;13.80;100.00;;;;;;5035166;28;21260;-81
2023/08/13 03:33:53;;;;;;;16.40;5.80;;;13.80;100.00;;;;;;5019979;28;20060;-81
2023/08/13 03:36:20;;;;;;;15.70;5.38;;;13.80;100.00;;;;;;5032927;28;20127;-80
2023/08/13 03:38:47;;;;;;;19.10;6.03;;;13.80;100.00;;;;;;5018696;28;20128;-80
2023/08/13 03:41:13;;;;;;;24.75;5.82;;;13.80;100.00;;;;;;5036324;28;20124;-81
2023/08/13 03:43:40;;;;;;;30.67;5.20;;;13.80;100.00;;;;;;5036599;28;20945;-80
2023/08/13 03:46:07;;;;;;;18.48;4.85;;;13.80;100.00;;;;;;5020644;28;20042;-80
2023/08/13 03:48:34;;;;;;;20.05;5.10;;;13.80;100.00;;;;;;5039438;28;20075;-80
2023/08/13 03:51:04;;;;;;;18.23;5.38;;;13.80;100.00;;;;;;5033395;28;20492;-80
2023/08/13 03:53:31;;;;;;;16.45;5.22;;;13.80;100.00;;;;;;5007578;28;20072;-80
2023/08/13 03:55:58;;;;;;;19.25;5.25;;;13.80;100.00;;;;;;5027079;28;20075;-80
2023/08/13 03:58:25;;;;;;;15.23;4.97;;;13.80;100.00;;;;;;5035569;28;20618;-80
2023/08/13 04:00:52;;;;;;;15.07;5.35;;;13.80;100.00;;;;;;5022110;28;20084;-80
2023/08/13 04:03:20;;;;;;;13.38;4.43;;;13.80;100.00;;;;;;5018923;28;20080;-80
2023/08/13 04:05:52;;;;;;;25.85;4.80;;;13.80;100.00;;;;;;5037014;28;20060;-80
2023/08/13 04:08:20;;;;;;;15.45;5.18;;;13.80;100.00;;;;;;5033677;28;20119;-80
2023/08/13 04:10:47;;;;;;;20.00;5.55;;;13.90;100.00;;;;;;5018772;28;20442;-80
2023/08/13 04:13:13;;;;;;;17.55;5.38;;;13.90;100.00;;;;;;5023703;28;20525;-80
2023/08/13 04:15:40;;;;;;;15.88;5.03;;;13.90;100.00;;;;;;5035041;28;20038;-80
2023/08/13 04:18:07;;;;;;;15.27;5.80;;;13.90;100.00;;;;;;5035326;28;20050;-80
2023/08/13 04:20:39;;;;;;;18.83;5.22;;;14.00;100.00;;;;;;5019091;28;20098;-80
2023/08/13 04:23:07;;;;;;;27.20;5.35;;;14.00;100.00;;;;;;5039712;28;20129;-80
2023/08/13 04:25:34;;;;;;;18.15;4.75;;;14.00;100.00;;;;;;5019204;28;20049;-80
2023/08/13 04:28:02;;;;;;;18.45;5.60;;;14.00;100.00;;;;;;5020217;28;20138;-80
2023/08/13 04:30:29;;;;;;;21.30;5.68;;;14.10;100.00;;;;;;5032595;28;20057;-80
2023/08/13 04:32:56;;;;;;;20.23;5.90;;;14.10;100.00;;;;;;5034267;28;20509;-81
2023/08/13 04:35:23;;;;;;;18.48;6.72;;;14.10;100.00;;;;;;5047358;28;20396;-80
2023/08/13 04:37:51;;;;;;;17.27;5.68;;;14.20;100.00;;;;;;5036147;28;20059;-80
2023/08/13 04:40:18;;;;;;;18.80;5.90;;;14.20;100.00;;;;;;5035096;28;20049;-80
2023/08/13 04:42:45;;;;;;;23.35;5.93;;;14.30;100.00;;;;;;5034397;28;20057;-80
2023/08/13 04:45:13;;;;;;;19.38;5.60;;;14.30;100.00;;;;;;5034324;28;20168;-80
2023/08/13 04:47:40;;;;;;;24.75;5.40;;;14.40;100.00;;;;;;5047854;28;20049;-80
2023/08/13 04:50:09;;;;;;;12.77;5.38;;;14.50;100.00;;;;;;5035169;28;20054;-81
2023/08/13 04:52:36;;;;;;;23.58;5.72;;;14.60;100.00;;;;;;5035837;28;20077;-80
2023/08/13 04:55:03;;;;;;;21.60;6.63;;;14.70;100.00;;;;;;5030257;28;20482;-81
2023/08/13 04:57:30;;;;;;;15.32;5.90;;;14.80;100.00;;;;;;5029414;28;20109;-81
2023/08/13 04:59:59;;;;;;;16.40;6.05;;;15.00;100.00;;;;;;5031442;28;20115;-81
2023/08/13 05:02:26;;;;;;;21.80;6.45;;;15.10;100.00;;;;;;5031124;28;20087;-81
2023/08/13 05:07:20;;;;;;;18.73;6.82;;;15.30;100.00;;;;;;5028704;28;20045;-81
2023/08/13 05:09:47;;;;;;;17.92;6.53;;;15.50;100.00;;;;;;5022307;28;20077;-81
2023/08/13 05:12:14;;;;;;;24.25;6.05;;;15.60;100.00;;;;;;5004117;28;20081;-80
2023/08/13 05:14:42;;;;;;;22.73;6.38;;;15.70;100.00;;;;;;5002361;28;20049;-80
2023/08/13 05:17:22;;;;;;;17.17;6.28;;;15.90;100.00;;;;;;5004363;28;20229;-80
2023/08/13 05:19:49;;;;;;;21.27;6.03;;;16.00;100.00;;;;;;5010008;28;20052;-80
2023/08/13 05:22:16;;;;;;;20.67;5.13;;;16.10;100.00;;;;;;5021920;28;20919;-80
2023/08/13 05:24:43;;;;;;;13.93;5.35;;;16.20;100.00;;;;;;5020482;28;20049;-80
2023/08/13 05:27:10;;;;;;;14.52;5.45;;;16.30;100.00;;;;;;5000469;28;20505;-80
2023/08/13 05:29:37;;;;;;;13.00;4.93;;;16.40;100.00;;;;;;5008044;28;20073;-81
2023/08/13 05:32:05;;;;;;;18.27;5.25;;;16.50;100.00;;;;;;5007621;28;20564;-81
2023/08/13 05:34:32;;;;;;;18.80;5.47;;;16.60;100.00;;;;;;5007619;28;20041;-81
2023/08/13 05:36:59;;;;;;;11.77;4.25;;;16.60;100.00;;;;;;4999201;23;20519;-83
2023/08/13 05:39:26;;;;;;;14.35;5.32;;;16.70;100.00;;;;;;4970140;28;20462;-82
2023/08/13 05:41:52;;;;;;;15.48;4.55;;;16.80;99.60;;;;;;4969907;28;20046;-82
2023/08/13 05:44:19;;;;;;;21.63;4.45;;;16.80;99.30;;;;;;4971936;28;20675;-82
2023/08/13 05:46:46;;;;;;;12.18;4.35;;;17.00;99.30;;;;;;4973040;28;20051;-83
2023/08/13 05:49:13;;;;;;;11.23;4.65;;;17.00;98.30;;;;;;4977973;28;20057;-82
2023/08/13 05:51:40;;;;;;;11.68;4.38;;;17.10;98.10;;;;;;4972070;28;20802;-82
2023/08/13 05:54:08;;;;;;;14.10;4.55;;;17.10;97.50;;;;;;4969514;28;20692;-82
2023/08/13 05:56:37;;;;;;;14.10;4.05;;;17.20;97.10;;;;;;4969851;28;20086;-82
2023/08/13 05:59:04;;;;;;;14.73;4.28;;;17.20;96.90;;;;;;4968438;28;20051;-82
2023/08/13 06:01:32;;;;;;;16.10;4.13;;;17.30;97.00;;;;;;4969789;28;20062;-82
2023/08/13 06:03:59;;;;;;;15.60;4.15;;;17.30;96.10;;;;;;4971212;28;20047;-82
2023/08/13 06:06:27;;;;;;;20.27;4.20;;;17.30;95.90;;;;;;4986314;28;20055;-82
2023/08/13 06:08:54;;;;;;;11.90;3.97;;;17.30;96.00;;;;;;4985665;28;20047;-82
2023/08/13 06:11:22;;;;;;;15.10;4.00;;;17.30;95.90;;;;;;4973878;28;20412;-81
2023/08/13 06:13:49;;;;;;;22.63;3.90;;;17.40;95.90;;;;;;4968621;28;20062;-82
2023/08/13 06:18:53;;;;;;;8.77;3.60;;;17.50;95.40;;;;;;4940880;29;20039;-80
2023/08/13 06:21:21;;;;;;;10.15;3.20;;;17.50;95.00;;;;;;4939100;29;20515;-81
2023/08/13 06:23:48;;;;;;;13.25;3.47;;;17.50;95.40;;;;;;4929694;29;20119;-80
2023/08/13 06:26:15;;;;;;;8.45;4.05;;;17.70;95.50;;;;;;4934004;29;20050;-80
2023/08/13 06:28:42;;;;;;;13.82;3.05;;;17.80;95.50;;;;;;4947346;29;20052;-80
2023/08/13 06:31:09;;;;;;;9.55;3.20;;;18.10;94.70;;;;;;4944117;28;20481;-80
2023/08/13 06:33:47;;;;;;;12.57;3.00;;;18.20;94.10;;;;;;4954228;29;20121;-79
2023/08/13 06:36:14;;;;;;;9.70;3.17;;;18.30;93.00;;;;;;4927061;29;20052;-80
2023/08/13 06:38:41;;;;;;;10.02;3.25;;;18.40;92.30;;;;;;4954787;29;20074;-81
2023/08/13 06:41:08;;;;;;;11.65;3.28;;;18.40;92.00;;;;;;4943744;29;20118;-79
2023/08/13 06:43:35;;;;;;;11.20;3.08;;;18.50;91.70;;;;;;4927855;29;20075;-82
2023/08/13 06:46:03;;;;;;;12.25;2.97;;;18.50;91.20;;;;;;4955018;29;20058;-81
2023/08/13 06:48:33;;;;;;;12.43;3.92;;;18.50;92.20;;;;;;4927192;29;20051;-81
2023/08/13 06:51:00;;;;;;;11.93;4.75;;;18.60;91.80;;;;;;4952137;29;20054;-81
2023/08/13 06:53:27;;;;;;;14.15;3.22;;;18.70;91.90;;;;;;4953342;29;20055;-80
2023/08/13 06:55:54;;;;;;;10.05;2.83;;;18.90;90.30;;;;;;4946869;29;20053;-80
2023/08/13 06:58:21;;;;;;;9.43;2.92;;;19.00;90.90;;;;;;4933852;29;20036;-80
2023/08/13 07:00:48;;;;;;;6.13;2.58;;;19.10;90.60;;;;;;4929781;29;20040;-79
2023/08/13 07:03:15;;;;;;;9.30;3.15;;;19.20;90.30;;;;;;4952270;29;20110;-81
2023/08/13 07:05:41;;;;;;;12.63;2.70;;;19.50;89.60;;;;;;4950414;29;20054;-79
2023/08/13 07:08:09;;;;;;;9.90;2.58;;;19.90;88.60;;;;;;4952667;29;20069;-79
2023/08/13 07:10:38;;;;;;;7.57;2.28;;;20.10;87.70;;;;;;4926385;29;20055;-79
2023/08/13 07:13:05;;;;;;;10.45;2.78;;;20.20;87.00;;;;;;4944929;29;20338;-80
2023/08/13 07:15:32;;;;;;;11.82;3.20;;;20.20;86.50;;;;;;4935674;29;20464;-79
2023/08/13 07:17:59;;;;;;;7.72;2.20;;;20.40;86.80;;;;;;4963836;28;20058;-79
2023/08/13 07:20:26;;;;;;;5.68;2.63;;;20.40;85.50;;;;;;4965556;28;20130;-79
2023/08/13 07:22:52;;;;;;;8.18;2.50;;;20.40;84.90;;;;;;4965244;28;20059;-79
2023/08/13 07:25:19;;;;;;;12.63;2.97;;;20.50;85.20;;;;;;4953230;28;20047;-77
2023/08/13 07:27:46;;;;;;;11.02;4.28;;;20.50;85.60;;;;;;4964773;28;20046;-77
2023/08/13 07:30:13;;;;;;;11.23;2.80;;;20.50;85.70;;;;;;4958291;28;20102;-77
2023/08/13 07:32:41;;;;;;;9.40;2.58;;;20.90;85.60;;;;;;4966599;28;20129;-78
2023/08/13 07:35:10;;;;;;;8.07;2.53;;;21.70;83.30;;;;;;4961394;28;20663;-78
2023/08/13 07:37:38;;;;;;;9.02;3.17;;;22.00;79.60;;;;;;4959151;28;20495;-79
2023/08/13 07:40:07;;;;;;;8.77;2.60;;;22.20;80.20;;;;;;4959837;28;20053;-76
2023/08/13 07:42:35;;;;;;;8.48;2.45;;;22.10;80.00;;;;;;4964781;28;20078;-79
2023/08/13 07:45:06;;;;;;;13.52;2.60;;;22.10;79.50;;;;;;4966176;28;20567;-78
2023/08/13 07:47:34;;;;;;;8.38;2.53;;;22.30;79.60;;;;;;4964115;28;20114;-81
2023/08/13 07:50:04;;;;;;;6.97;2.33;;;22.60;81.10;;;;;;4960778;28;20158;-79
2023/08/13 07:52:31;;;;;;;6.55;1.73;;;23.50;79.10;;;;;;4941848;28;20113;-80
2023/08/13 07:54:59;;;;;;;5.25;2.00;;;24.80;73.80;;;;;;4949611;28;20553;-83
2023/08/13 07:57:26;;;;;;;5.07;1.67;;;24.70;72.10;;;;;;4969653;28;20051;-83
2023/08/13 07:59:52;;;;;;;5.97;2.15;;;24.50;72.30;;;;;;4956298;28;20667;-80
2023/08/13 08:02:19;;;;;;;6.95;2.17;;;24.30;73.00;;;;;;4964910;28;20723;-85
2023/08/13 08:04:47;;;;;;;6.63;2.55;;;24.10;72.50;;;;;;4954032;28;20154;-85
2023/08/13 08:07:14;;;;;;;8.07;2.33;;;23.70;74.50;;;;;;4969475;28;20372;-85
2023/08/13 08:12:24;;;;;;;8.20;2.20;;;23.20;75.20;;;;;;5017260;28;20050;-77
2023/08/13 08:14:51;;;;;;;10.65;2.50;;;23.00;75.20;;;;;;5019694;28;20823;-76
2023/08/13 08:17:17;;;;;;;5.90;1.98;;;22.80;77.10;;;;;;5027921;28;20942;-78
2023/08/13 08:19:44;;;;;;;6.18;2.42;;;22.70;77.50;;;;;;5014653;28;20583;-78
2023/08/13 08:22:11;;;;;;;5.50;2.50;;;22.60;77.20;;;;;;5024456;28;20128;-78
2023/08/13 08:24:39;;;;;;;7.88;2.30;;;22.50;76.80;;;;;;5005435;28;20596;-80
2023/08/13 08:27:07;;;;;;;8.40;2.90;;;22.30;76.50;;;;;;5015986;28;20061;-79
2023/08/13 08:29:35;;;;;;;11.45;2.00;;;22.20;77.70;;;;;;5020843;28;20246;-80
2023/08/13 08:32:02;;;;;;;10.48;2.70;;;22.10;78.60;;;;;;4994252;28;20140;-76
2023/08/13 08:34:30;;;;;;;5.45;1.90;;;22.10;78.50;;;;;;5008669;28;20170;-76
2023/08/13 08:36:57;;;;;;;3.63;1.75;;;22.30;79.40;;;;;;5013551;28;20045;-76
2023/08/13 08:39:24;;;;;;;6.28;2.03;;;22.50;79.00;;;;;;5017862;28;20479;-76
2023/08/13 08:41:56;;;;;;;10.45;2.50;;;22.90;78.10;;;;;;5021367;28;20092;-77
2023/08/13 08:44:23;;;;;;;4.47;2.05;;;23.30;77.80;;;;;;5019087;28;20073;-76
2023/08/13 08:46:53;;;;;;;6.25;2.72;;;23.60;75.60;;;;;;5011591;28;20151;-75
2023/08/13 08:49:23;;;;;;;6.60;2.00;;;24.20;74.60;;;;;;5023491;28;20073;-75
2023/08/13 08:51:51;;;;;;;8.57;2.00;;;24.60;72.20;;;;;;5017592;28;20095;-75
2023/08/13 08:54:18;;;;;;;92.10;10.88;;;25.10;72.60;;;;;;5023125;28;20062;-75
2023/08/13 08:56:45;;;;;;;10.50;2.30;;;25.80;71.50;;;;;;5015545;28;20746;-75
2023/08/13 08:59:12;;;;;;;17.52;2.72;;;26.60;68.20;;;;;;5003662;28;20117;-75
2023/08/13 09:01:40;;;;;;;17.45;3.83;;;26.60;65.70;;;;;;5019081;28;20053;-77
2023/08/13 09:04:07;;;;;;;9.60;2.40;;;26.80;66.80;;;;;;5005658;28;20045;-83
2023/08/13 09:06:53;;;;;;;7.68;2.28;;;27.00;65.80;;;;;;5003589;28;20049;-84
2023/08/13 09:09:20;;;;;;;7.45;2.47;;;26.70;65.30;;;;;;5016620;28;20569;-81
2023/08/13 09:11:47;;;;;;;8.10;2.70;;;26.60;66.90;;;;;;5004453;28;20126;-80
2023/08/13 09:14:14;;;;;;;5.53;2.28;;;26.30;66.00;;;;;;5018325;28;20050;-80
2023/08/13 09:16:46;;;;;;;8.60;3.08;;;26.10;67.40;;;;;;4998867;28;20068;-80
2023/08/13 09:19:15;;;;;;;15.13;3.10;;;25.70;67.90;;;;;;5006730;28;20041;-80
2023/08/13 09:21:56;;;;;;;5.72;2.45;;;25.40;67.50;;;;;;5016412;28;20053;-80
2023/08/13 09:24:49;;;;;;;6.95;2.45;;;25.50;66.90;;;;;;5006186;28;20125;-81
2023/08/13 09:27:17;;;;;;;11.32;2.70;;;25.30;66.80;;;;;;4997357;28;20108;-80
2023/08/13 09:29:46;;;;;;;7.32;2.17;;;25.20;67.60;;;;;;5020974;28;20069;-80
2023/08/13 09:32:13;;;;;;;4.93;2.50;;;25.40;68.40;;;;;;4999567;28;20084;-80
2023/08/13 09:34:39;;;;;;;7.72;2.85;;;25.90;67.80;;;;;;5006096;28;20049;-81
2023/08/13 09:37:06;;;;;;;10.48;2.65;;;26.40;66.20;;;;;;5020492;28;20120;-80
2023/08/13 09:39:33;;;;;;;5.30;2.20;;;26.40;64.90;;;;;;5018971;28;20116;-81
2023/08/13 09:42:05;;;;;;;8.77;2.42;;;26.30;64.10;;;;;;5007518;28;20156;-81
2023/08/13 09:44:32;;;;;;;7.60;2.40;;;26.00;65.10;;;;;;5001453;28;20146;-79
2023/08/13 09:47:00;;;;;;;6.88;2.15;;;25.60;64.10;;;;;;4999584;28;20479;-79
2023/08/13 09:49:33;;;;;;;7.93;2.13;;;26.20;64.90;;;;;;5010975;28;20045;-79
2023/08/13 09:52:09;;;;;;;9.70;2.28;;;26.60;63.70;;;;;;5001213;28;20129;-80
2023/08/13 09:54:48;;;;;;;8.48;2.20;;;26.80;63.30;;;;;;5018529;28;20099;-80
2023/08/13 09:57:16;;;;;;;6.05;1.95;;;26.80;62.90;;;;;;5020078;28;20094;-79
2023/08/13 09:59:44;;;;;;;7.55;2.38;;;26.70;62.40;;;;;;5023922;28;20802;-81
2023/08/13 10:02:13;;;;;;;10.05;2.47;;;26.60;61.90;;;;;;5021434;28;20103;-80
2023/08/13 10:04:42;;;;;;;6.78;2.08;;;26.40;60.70;;;;;;4999573;28;20149;-82
2023/08/13 10:07:09;;;;;;;8.80;2.35;;;26.10;62.60;;;;;;5003771;28;20049;-82
2023/08/13 10:09:37;;;;;;;6.90;2.10;;;25.90;62.60;;;;;;5024573;28;20080;-82
2023/08/13 10:12:09;;;;;;;7.05;2.47;;;25.80;63.20;;;;;;5011454;28;20089;-81
2023/08/13 10:14:37;;;;;;;9.23;2.92;;;25.70;63.80;;;;;;5014413;28;20088;-82
2023/08/13 10:17:06;;;;;;;6.05;2.75;;;25.70;62.70;;;;;;5021247;28;20201;-81
2023/08/13 10:19:40;;;;;;;25.23;5.30;;;25.60;63.30;;;;;;5015665;22;20159;-81
2023/08/13 10:22:12;;;;;;;14.82;3.17;;;25.20;62.20;;;;;;5022776;28;20095;-81
2023/08/13 10:24:42;;;;;;;7.90;2.85;;;25.00;64.90;;;;;;5022508;28;20045;-78
2023/08/13 10:27:12;;;;;;;9.13;3.30;;;24.90;64.10;;;;;;5036241;28;20124;-84
2023/08/13 10:29:43;;;;;;;8.40;2.90;;;24.60;63.30;;;;;;5017332;28;20419;-83
2023/08/13 10:32:15;;;;;;;13.77;3.47;;;24.60;66.30;;;;;;5012860;28;20053;-83
2023/08/13 10:34:54;;;;;;;10.68;3.17;;;24.70;68.30;;;;;;5046547;22;20417;-78
2023/08/13 10:37:23;;;;;;;10.07;3.38;;;25.70;64.40;;;;;;4996540;28;20049;-79
2023/08/13 10:39:56;;;;;;;10.55;2.88;;;26.80;64.10;;;;;;4999571;28;20124;-79
2023/08/13 10:42:37;;;;;;;9.43;2.80;;;27.90;60.20;;;;;;5013440;28;20088;-79
2023/08/13 10:45:09;;;;;;;10.82;3.30;;;28.70;57.20;;;;;;5008802;28;20089;-79
2023/08/13 10:47:58;;;;;;;11.38;2.92;;;28.20;56.80;;;;;;5013987;28;20781;-78
2023/08/13 10:50:35;;;;;;;8.45;3.40;;;27.90;59.20;;;;;;5015950;28;20121;-84
2023/08/13 10:53:12;;;;;;;10.90;3.45;;;29.40;57.10;;;;;;5001717;28;20054;-83
2023/08/13 10:55:42;;;;;;;17.10;3.13;;;30.80;54.70;;;;;;5021762;28;20050;-83
2023/08/13 10:58:23;;;;;;;10.32;3.17;;;31.20;54.10;;;;;;5020946;28;20469;-83
2023/08/13 11:00:51;;;;;;;6.88;3.15;;;32.40;52.10;;;;;;5005478;28;20815;-81
2023/08/13 11:03:23;;;;;;;8.85;3.67;;;32.90;50.70;;;;;;5003497;28;20049;-81
2023/08/13 11:05:52;;;;;;;11.07;3.80;;;33.20;49.50;;;;;;5013842;28;20069;-82
2023/08/13 11:08:20;;;;;;;11.00;3.80;;;34.10;47.90;;;;;;5022269;28;20514;-83
2023/08/13 11:11:07;;;;;;;9.15;3.50;;;33.90;48.40;;;;;;5009810;28;20052;-84
2023/08/13 11:13:34;;;;;;;9.23;3.05;;;34.40;45.70;;;;;;5024720;28;20649;-85
2023/08/13 11:16:01;;;;;;;29.58;4.72;;;33.00;46.30;;;;;;5002473;28;20054;-85
2023/08/13 11:18:28;;;;;;;9.50;2.50;;;31.20;49.10;;;;;;5002883;28;20121;-86
2023/08/13 11:20:55;;;;;;;13.40;2.63;;;30.30;49.50;;;;;;5005796;28;20077;-85
2023/08/13 11:23:23;;;;;;;9.35;2.50;;;31.00;50.50;;;;;;5012612;28;20861;-83
2023/08/13 11:25:50;;;;;;;6.75;2.88;;;30.90;47.20;;;;;;5013700;28;20080;-86
2023/08/13 11:28:28;;;;;;;5.25;2.17;;;30.30;51.40;;;;;;5021022;28;20077;-84
2023/08/13 11:30:56;;;;;;;6.60;1.90;;;31.60;52.20;;;;;;5016099;28;20498;-82
2023/08/13 11:33:24;;;;;;;5.07;1.73;;;32.60;47.90;;;;;;4996772;28;20041;-76
2023/08/13 11:35:51;;;;;;;11.07;2.08;;;32.80;45.30;;;;;;5010280;28;20045;-80
2023/08/13 11:38:19;;;;;;;5.40;1.60;;;32.00;48.20;;;;;;5021667;28;20141;-77
2023/08/13 11:40:46;;;;;;;7.13;2.10;;;32.00;49.80;;;;;;5016003;28;20092;-78
2023/08/13 11:43:14;;;;;;;3.95;2.13;;;33.50;48.90;;;;;;5008254;28;20640;-77
2023/08/13 11:45:41;;;;;;;6.03;2.35;;;34.60;46.10;;;;;;5016767;28;20095;-77
2023/08/13 11:48:13;;;;;;;3.70;1.70;;;35.20;45.00;;;;;;5013280;28;20653;-77
2023/08/13 11:50:46;;;;;;;5.18;2.33;;;35.70;40.80;;;;;;5017937;28;20124;-77
2023/08/13 11:53:14;;;;;;;4.78;2.00;;;36.10;41.00;;;;;;5016892;28;20147;-75
2023/08/13 11:55:46;;;;;;;5.60;1.70;;;36.40;42.80;;;;;;5014365;28;20049;-74
2023/08/13 11:58:20;;;;;;;8.23;2.28;;;36.10;40.70;;;;;;4997089;28;20435;-75
2023/08/13 12:00:48;;;;;;;2.38;1.50;;;36.60;41.50;;;;;;4998798;28;20132;-75
2023/08/13 12:03:15;;;;;;;8.20;1.92;;;36.30;41.60;;;;;;5013411;28;20128;-75
2023/08/13 12:05:42;;;;;;;4.57;1.10;;;35.90;41.60;;;;;;5001844;28;20486;-80
2023/08/13 12:08:10;;;;;;;3.92;1.35;;;35.70;42.50;;;;;;5016984;28;20049;-80
2023/08/13 12:10:38;;;;;;;5.10;1.83;;;35.80;42.00;;;;;;5015036;28;20073;-80
2023/08/13 12:13:06;;;;;;;6.28;1.73;;;35.90;39.60;;;;;;5016338;28;20073;-80
2023/08/13 12:15:33;;;;;;;6.30;1.88;;;35.20;40.60;;;;;;5002834;28;20398;-80
2023/08/13 12:18:00;;;;;;;7.03;2.00;;;35.90;42.40;;;;;;4995940;28;20061;-81
2023/08/13 12:20:28;;;;;;;5.88;1.77;;;36.20;41.10;;;;;;5014115;28;20049;-80
2023/08/13 12:22:55;;;;;;;3.13;1.52;;;36.40;41.50;;;;;;5013201;28;20088;-81
2023/08/13 12:25:22;;;;;;;5.93;1.70;;;37.00;40.40;;;;;;5018940;28;20128;-80
2023/08/13 12:27:53;;;;;;;4.38;1.52;;;37.10;38.30;;;;;;5017963;28;20053;-80
2023/08/13 12:30:20;;;;;;;6.47;1.92;;;36.80;40.80;;;;;;4994053;28;20644;-80
2023/08/13 12:32:47;;;;;;;2.95;1.10;;;37.10;40.60;;;;;;5003267;28;20482;-82
2023/08/13 12:35:14;;;;;;;5.30;1.48;;;37.60;39.60;;;;;;5017901;28;20042;-82
2023/08/13 12:37:41;;;;;;;6.90;2.40;;;37.90;39.70;;;;;;5004501;28;20045;-83
2023/08/13 12:40:11;;;;;;;4.20;1.50;;;38.30;39.60;;;;;;5021199;28;20140;-82
2023/08/13 12:42:38;;;;;;;4.50;1.42;;;37.50;37.60;;;;;;4998222;28;20462;-83
2023/08/13 12:45:06;;;;;;;6.03;2.10;;;37.10;38.80;;;;;;4997104;28;20046;-84
2023/08/13 12:47:34;;;;;;;6.70;1.92;;;37.40;39.60;;;;;;5017017;28;20540;-82
2023/08/13 12:50:06;;;;;;;4.70;1.65;;;37.90;40.00;;;;;;5014576;28;20768;-82
2023/08/13 12:52:34;;;;;;;6.95;1.75;;;36.90;40.30;;;;;;5018827;28;20042;-82